Houma, LA (70363)

11:11 AM CDT on September 19, 2014 (GMT -0500)
ASHLAND NORTH | Change Station
CLOSE
Current Station
Personal Weather Station
Location: Houma, LA
Elevation: 3 ft
Nearby Weather Stations

Elev 3 ft 29.54 °N, 90.67 °W | Updated 8 seconds ago

Scattered Clouds
Scattered Clouds
83.7 °F
Feels Like 90 °F
N
13.6
Wind Variable Wind from SE
Gusts 13.6 mph

Today
High -- | Low -- °F
--% Chance of Precip.
Yesterday
High -- | Low -- °F
Precip. -- in
6:49 AM 7:02 PM
Waning Crescent, 18% visible
Pressure 29.95 in
Visibility 7.0 miles
Clouds Scattered Clouds 1700 ft
Heat Index 90 °F
Dew Point 72 °F
Humidity 69%
Rainfall 0.00 in
Snow Depth Not available.
UV 4 out of 12
Pollen 8.60 out of 12
Air Quality Not available.
Flu Activity Not available.
METAR KHUM 191447Z 09005KT 7SM SCT017 27/16 A2995 RMK ATIS A VA/RY18 MS

More Conditions Fewer Conditions

Pressure 29.95 in
Visibility 7.0 miles
Clouds Scattered Clouds 1700 ft
Heat Index 90 °F
Dew Point 72 °F
Humidity 69%
Rainfall 0.00 in
Snow Depth Not available.
UV 4 out of 12
Pollen 8.60 out of 12
Air Quality Not available.
Flu Activity Not available.
METAR KHUM 191447Z 09005KT 7SM SCT017 27/16 A2995 RMK ATIS A VA/RY18 MS

More Conditions Fewer Conditions

10-Day Weather Forecast

Almanac

Astronomy

Sep. 19, 2014 Rise Set
Actual Time 6:49 AM CDT 7:02 PM CDT
Civil Twilight 6:25 AM CDT 7:26 PM CDT
Nautical Twilight 5:57 AM CDT 7:54 PM CDT
Astronomical Twilight 5:29 AM CDT 8:22 PM CDT
Moon 2:50 AM CDT 4:18 PM CDT
Length of Visible Light 13h 01m
Length of Day
12h 13m
Tomorrow will be 1m 45s shorter.
Waning Crescent, 18% of the Moon is Illuminated
Today
Waning Crescent
Sep 24
New
Oct 1
First Quarter
Oct 8
Full
Oct 15
Last Quarter

Today's Extremes

State Highs State Lows

Community

WunderPhotos

Upload Photos

1,754,645 photos uploaded!

WunderBlogs® & News

By Dr. Jeff Masters
Director of Meteorology, Weather Underground
By Kari Strenfel
Meteorologist, Weather Underground
By Christopher C. Burt
Weather Historian, Weather Underground
September 19, 2014
September 19, 2014
September 19, 2014

Nearby

Snow Depth

Station Depth Elevation
No new snow has been reported.

Earthquake Activity

City Distance Mag. Time & Date
No recent earthquake activity has been reported nearby.
Minimum magnitude displayed is 2.5.

Coastal Water Temperatures

Place Temperature
Amerada Pass, LA 82.9 °F

Nearby Weather Stations